createdAt,value
2018-02-20T00:00:39.474Z,0
2018-02-20T00:01:39.452Z,0
2018-02-20T00:02:39.183Z,0
2018-02-20T00:03:39.429Z,0
2018-02-20T00:04:39.152Z,0
2018-02-20T00:05:39.404Z,0
2018-02-20T00:06:39.380Z,0
2018-02-20T00:07:39.363Z,0
2018-02-20T00:08:39.345Z,0
2018-02-20T00:09:39.320Z,0
2018-02-20T00:10:39.311Z,0
2018-02-20T00:11:39.293Z,0
2018-02-20T00:12:39.277Z,0
2018-02-20T00:13:39.253Z,0
2018-02-20T00:14:39.237Z,0
2018-02-20T00:15:39.223Z,0
2018-02-20T00:16:38.954Z,0
2018-02-20T00:17:39.188Z,0
2018-02-20T00:18:38.662Z,0
2018-02-20T00:19:39.162Z,0
2018-02-20T00:20:39.142Z,0
2018-02-20T00:21:39.119Z,0
2018-02-20T00:22:39.111Z,0
2018-02-20T00:23:39.136Z,0
2018-02-20T00:24:39.091Z,0
2018-02-20T00:25:39.049Z,0
2018-02-20T00:26:38.775Z,0
2018-02-20T00:27:39.020Z,0
2018-02-20T00:28:39.011Z,0
2018-02-20T00:29:38.984Z,0
2018-02-20T00:30:38.971Z,0
2018-02-20T00:31:38.702Z,0
2018-02-20T00:32:38.934Z,0
2018-02-20T00:33:38.659Z,0
2018-02-20T00:34:38.650Z,0
2018-02-20T00:35:38.900Z,0
2018-02-20T00:36:38.354Z,0
2018-02-20T00:37:38.850Z,0
2018-02-20T00:38:38.833Z,0
2018-02-20T00:39:38.810Z,0
2018-02-20T00:40:38.801Z,0
2018-02-20T00:41:38.796Z,0
2018-02-20T00:42:38.759Z,0
2018-02-20T00:43:38.747Z,0
2018-02-20T00:44:38.739Z,0
2018-02-20T00:45:38.740Z,0
2018-02-20T00:46:38.445Z,0
2018-02-20T00:47:38.675Z,0
2018-02-20T00:48:38.411Z,0
2018-02-20T00:49:38.647Z,0
2018-02-20T00:50:38.882Z,0
2018-02-20T00:51:38.619Z,0
2018-02-20T00:52:38.601Z,0
2018-02-20T00:53:38.580Z,0
2018-02-20T00:54:38.568Z,0
2018-02-20T00:55:38.552Z,0
2018-02-20T00:56:38.526Z,0
2018-02-20T00:57:38.511Z,0
2018-02-20T00:58:38.241Z,0
2018-02-20T00:59:38.478Z,0
2018-02-20T01:00:38.207Z,0
2018-02-20T01:01:38.187Z,0
2018-02-20T01:02:38.440Z,0
2018-02-20T01:03:38.410Z,0
2018-02-20T01:04:38.392Z,0
2018-02-20T01:05:38.378Z,0
2018-02-20T01:06:38.360Z,0
2018-02-20T01:07:38.344Z,0
2018-02-20T01:08:38.337Z,0
2018-02-20T01:09:38.308Z,0
2018-02-20T01:10:38.292Z,0
2018-02-20T01:11:38.024Z,0
2018-02-20T01:12:38.306Z,0
2018-02-20T01:13:38.243Z,0
2018-02-20T01:14:38.228Z,0
2018-02-20T01:15:38.217Z,0
2018-02-20T01:16:38.191Z,0
2018-02-20T01:17:38.184Z,0
2018-02-20T01:18:38.153Z,0
2018-02-20T01:19:38.138Z,0
2018-02-20T01:20:38.118Z,0
2018-02-20T01:21:38.352Z,0
2018-02-20T01:22:38.088Z,0
2018-02-20T01:23:38.073Z,0
2018-02-20T01:24:38.055Z,0
2018-02-20T01:25:37.788Z,0
2018-02-20T01:26:38.022Z,0
2018-02-20T01:27:37.756Z,0
2018-02-20T01:28:37.733Z,0
2018-02-20T01:29:37.717Z,0
2018-02-20T01:30:37.953Z,0
2018-02-20T01:31:37.934Z,0
2018-02-20T01:32:37.926Z,0
2018-02-20T01:33:37.906Z,0
2018-02-20T01:34:37.894Z,0
2018-02-20T01:35:37.869Z,0
2018-02-20T01:36:37.855Z,0
2018-02-20T01:37:37.840Z,0
2018-02-20T01:38:37.818Z,0
2018-02-20T01:39:37.823Z,0
2018-02-20T01:40:37.785Z,0
2018-02-20T01:41:37.512Z,0
2018-02-20T01:42:37.492Z,0
2018-02-20T01:43:37.751Z,0
2018-02-20T01:44:37.469Z,0
2018-02-20T01:45:37.450Z,0
2018-02-20T01:46:37.684Z,0
2018-02-20T01:47:37.670Z,0
2018-02-20T01:48:37.399Z,0
2018-02-20T01:49:37.640Z,0
2018-02-20T01:50:37.626Z,0
2018-02-20T01:51:37.598Z,0
2018-02-20T01:52:37.840Z,0
2018-02-20T01:53:37.583Z,0
2018-02-20T01:54:37.557Z,0
2018-02-20T01:55:37.538Z,0
2018-02-20T01:56:37.518Z,0
2018-02-20T01:57:37.516Z,0
2018-02-20T01:58:37.232Z,0
2018-02-20T01:59:37.212Z,0
2018-02-20T02:00:37.451Z,0
2018-02-20T02:01:37.433Z,0
2018-02-20T02:02:37.166Z,0
2018-02-20T02:03:37.405Z,0
2018-02-20T02:04:37.127Z,0
2018-02-20T02:05:37.373Z,0
2018-02-20T02:06:37.352Z,0
2018-02-20T02:07:37.333Z,0
2018-02-20T02:08:37.322Z,0
2018-02-20T02:09:37.309Z,0
2018-02-20T02:10:37.281Z,0
2018-02-20T02:11:37.279Z,0
2018-02-20T02:12:37.249Z,0
2018-02-20T02:13:37.235Z,0
2018-02-20T02:14:37.222Z,0
2018-02-20T02:15:37.207Z,0
2018-02-20T02:16:37.233Z,0
2018-02-20T02:17:36.925Z,0
2018-02-20T02:18:37.452Z,0
2018-02-20T02:19:37.141Z,0
2018-02-20T02:20:37.133Z,0
2018-02-20T02:21:37.105Z,0
2018-02-20T02:22:37.095Z,0
2018-02-20T02:23:37.071Z,0
2018-02-20T02:24:37.052Z,0
2018-02-20T02:25:36.525Z,0
2018-02-20T02:26:36.765Z,0
2018-02-20T02:27:36.752Z,0
2018-02-20T02:28:36.729Z,0
2018-02-20T02:29:36.712Z,0
2018-02-20T02:30:36.962Z,0
2018-02-20T02:31:36.958Z,0
2018-02-20T02:32:36.667Z,0
2018-02-20T02:33:36.910Z,0
2018-02-20T02:34:36.897Z,0
2018-02-20T02:35:36.871Z,0
2018-02-20T02:36:36.852Z,0
2018-02-20T02:37:36.837Z,0
2018-02-20T02:38:36.814Z,0
2018-02-20T02:39:36.822Z,0
2018-02-20T02:40:36.790Z,0
2018-02-20T02:41:36.801Z,0
2018-02-20T02:42:36.759Z,0
2018-02-20T02:43:36.754Z,0
2018-02-20T02:44:36.461Z,0
2018-02-20T02:45:36.713Z,0
2018-02-20T02:46:36.430Z,0
2018-02-20T02:47:36.672Z,0
2018-02-20T02:48:36.671Z,0
2018-02-20T02:49:36.648Z,0
2018-02-20T02:50:36.619Z,0
2018-02-20T02:51:36.346Z,0
2018-02-20T02:52:36.331Z,0
2018-02-20T02:53:36.572Z,0
2018-02-20T02:54:36.563Z,0
2018-02-20T02:55:36.545Z,0
2018-02-20T02:56:36.520Z,0
2018-02-20T02:57:36.509Z,0
2018-02-20T02:58:36.500Z,0
2018-02-20T02:59:36.218Z,0
2018-02-20T03:00:36.453Z,0
2018-02-20T03:01:36.446Z,0
2018-02-20T03:02:36.424Z,0
2018-02-20T03:03:36.405Z,0
2018-02-20T03:04:36.134Z,0
2018-02-20T03:05:36.380Z,0
2018-02-20T03:06:36.368Z,0
2018-02-20T03:07:36.339Z,0
2018-02-20T03:08:36.061Z,0
2018-02-20T03:09:36.321Z,0
2018-02-20T03:10:36.281Z,0
2018-02-20T03:11:36.270Z,0
2018-02-20T03:12:36.254Z,0
2018-02-20T03:13:36.237Z,0
2018-02-20T03:14:36.218Z,0
2018-02-20T03:15:36.198Z,0
2018-02-20T03:16:36.188Z,0
2018-02-20T03:17:36.181Z,0
2018-02-20T03:18:36.145Z,0
2018-02-20T03:19:36.133Z,0
2018-02-20T03:20:36.120Z,0
2018-02-20T03:21:36.101Z,0
2018-02-20T03:22:36.088Z,0
2018-02-20T03:23:36.063Z,0
2018-02-20T03:24:35.798Z,0
2018-02-20T03:25:36.031Z,0
2018-02-20T03:26:36.020Z,0
2018-02-20T03:27:35.743Z,0
2018-02-20T03:28:35.987Z,0
2018-02-20T03:29:35.979Z,0
2018-02-20T03:30:35.963Z,0
2018-02-20T03:31:35.950Z,0
2018-02-20T03:32:35.939Z,0
2018-02-20T03:33:35.903Z,0
2018-02-20T03:34:35.883Z,0
2018-02-20T03:35:35.878Z,0
2018-02-20T03:36:35.852Z,0
2018-02-20T03:37:35.834Z,0
2018-02-20T03:38:35.562Z,0
2018-02-20T03:39:35.809Z,0
2018-02-20T03:40:35.781Z,0
2018-02-20T03:41:35.775Z,0
2018-02-20T03:42:35.506Z,0
2018-02-20T03:43:35.735Z,0
2018-02-20T03:44:35.461Z,0
2018-02-20T03:45:35.700Z,0
2018-02-20T03:46:35.431Z,0
2018-02-20T03:47:35.671Z,0
2018-02-20T03:48:35.660Z,0
2018-02-20T03:49:35.377Z,0
2018-02-20T03:50:35.631Z,0
2018-02-20T03:51:35.605Z,0
2018-02-20T03:52:35.582Z,0
2018-02-20T03:53:35.316Z,0
2018-02-20T03:54:35.549Z,0
2018-02-20T03:55:35.533Z,0
2018-02-20T03:56:35.515Z,0
2018-02-20T03:57:35.496Z,0
2018-02-20T03:58:35.483Z,0
2018-02-20T03:59:35.463Z,0
2018-02-20T04:00:34.942Z,0
2018-02-20T04:01:35.175Z,0
2018-02-20T04:02:35.420Z,0
2018-02-20T04:03:35.403Z,0
2018-02-20T04:04:35.122Z,0
2018-02-20T04:05:35.370Z,0
2018-02-20T04:06:34.579Z,0
2018-02-20T04:07:35.332Z,0
2018-02-20T04:08:35.060Z,0
2018-02-20T04:09:35.297Z,0
2018-02-20T04:10:35.024Z,0
2018-02-20T04:11:35.268Z,0
2018-02-20T04:12:34.990Z,0
2018-02-20T04:13:35.230Z,0
2018-02-20T04:14:35.214Z,0
2018-02-20T04:15:35.190Z,0
2018-02-20T04:16:35.180Z,0
2018-02-20T04:17:35.155Z,0
2018-02-20T04:18:35.142Z,0
2018-02-20T04:19:35.125Z,0
2018-02-20T04:20:34.856Z,0
2018-02-20T04:21:34.840Z,0
2018-02-20T04:22:35.077Z,0
2018-02-20T04:23:35.091Z,0
2018-02-20T04:24:35.042Z,0
2018-02-20T04:25:35.028Z,0
2018-02-20T04:26:35.009Z,0
2018-02-20T04:27:34.998Z,0
2018-02-20T04:28:35.223Z,0
2018-02-20T04:29:34.698Z,0
2018-02-20T04:30:34.936Z,0
2018-02-20T04:31:34.666Z,0
2018-02-20T04:32:34.910Z,0
2018-02-20T04:33:34.891Z,0
2018-02-20T04:34:34.876Z,0
2018-02-20T04:35:34.855Z,0
2018-02-20T04:36:34.830Z,0
2018-02-20T04:37:34.817Z,0
2018-02-20T04:38:34.551Z,0
2018-02-20T04:39:34.784Z,0
2018-02-20T04:40:34.765Z,0
2018-02-20T04:41:34.498Z,0
2018-02-20T04:42:34.784Z,0
2018-02-20T04:43:34.461Z,0
2018-02-20T04:44:34.446Z,0
2018-02-20T04:45:34.425Z,0
2018-02-20T04:46:34.422Z,0
2018-02-20T04:47:34.664Z,0
2018-02-20T04:48:34.631Z,0
2018-02-20T04:49:34.622Z,0
2018-02-20T04:50:34.602Z,0
2018-02-20T04:51:34.584Z,0
2018-02-20T04:52:34.591Z,16
2018-02-20T04:53:34.540Z,32
2018-02-20T04:54:34.526Z,40
2018-02-20T04:55:34.513Z,40
2018-02-20T04:56:34.242Z,40
2018-02-20T04:57:34.223Z,40
2018-02-20T04:58:34.227Z,40
2018-02-20T04:59:34.693Z,40
2018-02-20T05:00:34.431Z,40
2018-02-20T05:01:33.902Z,40
2018-02-20T05:02:34.402Z,40
2018-02-20T05:03:34.123Z,40
2018-02-20T05:04:34.358Z,40
2018-02-20T05:05:34.339Z,40
2018-02-20T05:06:34.066Z,0
2018-02-20T05:07:34.310Z,0
2018-02-20T05:08:34.287Z,0
2018-02-20T05:09:34.272Z,0
2018-02-20T05:10:34.002Z,0
2018-02-20T05:11:34.235Z,0
2018-02-20T05:12:34.217Z,0
2018-02-20T05:13:34.201Z,0
2018-02-20T05:14:33.928Z,0
2018-02-20T05:15:34.169Z,0
2018-02-20T05:16:34.149Z,0
2018-02-20T05:17:33.876Z,0
2018-02-20T05:18:34.122Z,0
2018-02-20T05:19:34.103Z,0
2018-02-20T05:20:33.837Z,0
2018-02-20T05:21:33.808Z,0
2018-02-20T05:22:34.091Z,0
2018-02-20T05:23:34.030Z,0
2018-02-20T05:24:34.011Z,0
2018-02-20T05:25:33.738Z,0
2018-02-20T05:26:33.979Z,0
2018-02-20T05:27:33.968Z,0
2018-02-20T05:28:33.691Z,0
2018-02-20T05:29:33.932Z,0
2018-02-20T05:30:33.672Z,0
2018-02-20T05:31:33.894Z,0
2018-02-20T05:32:33.623Z,0
2018-02-20T05:33:33.859Z,0
2018-02-20T05:34:33.849Z,0
2018-02-20T05:35:33.578Z,0
2018-02-20T05:36:33.556Z,4
2018-02-20T05:37:33.791Z,4
2018-02-20T05:38:33.774Z,0
2018-02-20T05:39:32.996Z,4
2018-02-20T05:40:33.744Z,4
2018-02-20T05:41:33.725Z,4
2018-02-20T05:42:33.449Z,4
2018-02-20T05:43:33.688Z,4
2018-02-20T05:44:33.672Z,8
2018-02-20T05:45:33.658Z,8
2018-02-20T05:46:33.647Z,12
2018-02-20T05:47:33.617Z,8
2018-02-20T05:48:33.637Z,12
2018-02-20T05:49:33.600Z,16
2018-02-20T05:50:33.578Z,16
2018-02-20T05:51:33.342Z,20
2018-02-20T05:52:33.535Z,24
2018-02-20T05:53:33.512Z,32
2018-02-20T05:54:33.500Z,32
2018-02-20T05:55:33.478Z,40
2018-02-20T05:56:33.484Z,44
2018-02-20T05:57:33.451Z,52
2018-02-20T05:58:33.441Z,60
2018-02-20T05:59:33.409Z,72
2018-02-20T06:00:33.137Z,80
2018-02-20T06:01:33.385Z,88
2018-02-20T06:02:33.366Z,104
2018-02-20T06:03:32.834Z,116
2018-02-20T06:04:33.072Z,128
2018-02-20T06:05:33.309Z,144
2018-02-20T06:06:33.359Z,160
2018-02-20T06:07:32.762Z,176
2018-02-20T06:08:33.258Z,196
2018-02-20T06:09:33.065Z,212
2018-02-20T06:10:33.227Z,232
2018-02-20T06:11:33.209Z,256
2018-02-20T06:12:33.192Z,296
2018-02-20T06:13:33.172Z,332
2018-02-20T06:14:33.157Z,364
2018-02-20T06:15:33.134Z,392
2018-02-20T06:16:33.132Z,424
2018-02-20T06:17:33.148Z,448
2018-02-20T06:18:33.092Z,480
2018-02-20T06:19:33.067Z,508
2018-02-20T06:20:33.060Z,540
2018-02-20T06:21:33.039Z,576
2018-02-20T06:22:33.023Z,576
2018-02-20T06:23:32.491Z,624
2018-02-20T06:24:32.730Z,672
2018-02-20T06:25:32.720Z,720
2018-02-20T06:26:32.961Z,768
2018-02-20T06:27:32.944Z,820
2018-02-20T06:28:32.918Z,868
2018-02-20T06:29:32.904Z,924
2018-02-20T06:30:32.642Z,980
2018-02-20T06:31:32.874Z,1040
2018-02-20T06:32:32.851Z,1104
2018-02-20T06:33:33.082Z,1172
2018-02-20T06:34:32.970Z,1236
2018-02-20T06:35:32.916Z,1288
2018-02-20T06:36:32.784Z,1352
2018-02-20T06:37:32.769Z,1416
2018-02-20T06:38:32.745Z,1480
2018-02-20T06:39:32.746Z,1544
2018-02-20T06:40:32.459Z,1604
2018-02-20T06:41:32.712Z,1664
2018-02-20T06:42:32.675Z,1728
2018-02-20T06:43:32.661Z,1800
2018-02-20T06:44:32.135Z,1864
2018-02-20T06:45:32.378Z,1928
2018-02-20T06:46:32.611Z,1996
2018-02-20T06:47:32.341Z,2064
2018-02-20T06:48:32.322Z,2132
2018-02-20T06:49:32.300Z,2212
2018-02-20T06:50:32.297Z,2316
2018-02-20T06:51:32.269Z,2448
2018-02-20T06:52:32.508Z,2592
2018-02-20T06:53:32.236Z,2740
2018-02-20T06:54:32.213Z,2884
2018-02-20T06:55:32.199Z,3016
2018-02-20T06:56:32.198Z,3136
2018-02-20T06:57:32.442Z,3252
2018-02-20T06:58:31.894Z,3368
2018-02-20T06:59:32.136Z,3484
2018-02-20T07:00:31.855Z,3568
2018-02-20T07:01:32.098Z,3648
2018-02-20T07:02:32.086Z,3736
2018-02-20T07:03:31.811Z,3820
2018-02-20T07:04:32.303Z,3916
2018-02-20T07:05:32.294Z,4008
2018-02-20T07:06:32.016Z,4120
2018-02-20T07:07:32.001Z,4220
2018-02-20T07:08:31.982Z,4300
2018-02-20T07:09:31.972Z,4392
2018-02-20T07:10:31.962Z,4496
2018-02-20T07:11:32.199Z,4592
2018-02-20T07:12:32.174Z,4604
2018-02-20T07:13:32.156Z,4816
2018-02-20T07:14:31.898Z,4936
2018-02-20T07:15:32.332Z,5084
2018-02-20T07:16:32.105Z,5180
2018-02-20T07:17:32.100Z,5284
2018-02-20T07:18:31.820Z,5336
2018-02-20T07:19:31.827Z,5392
2018-02-20T07:20:32.043Z,5512
2018-02-20T07:21:31.827Z,5632
2018-02-20T07:22:31.758Z,5724
2018-02-20T07:23:32.005Z,5792
2018-02-20T07:24:31.987Z,5844
2018-02-20T07:25:31.973Z,5904
2018-02-20T07:26:31.702Z,6016
2018-02-20T07:27:31.942Z,6092
2018-02-20T07:28:31.919Z,6124
2018-02-20T07:29:31.909Z,6272
2018-02-20T07:30:31.692Z,6424
2018-02-20T07:31:31.675Z,6504
2018-02-20T07:32:31.872Z,6628
2018-02-20T07:33:31.855Z,6764
2018-02-20T07:34:31.840Z,6936
2018-02-20T07:35:32.077Z,7076
2018-02-20T07:36:31.822Z,7216
2018-02-20T07:37:31.798Z,7360
2018-02-20T07:38:31.958Z,7468
2018-02-20T07:39:31.501Z,7436
2018-02-20T07:40:31.747Z,7472
2018-02-20T07:41:31.730Z,7660
2018-02-20T07:42:31.707Z,7792
2018-02-20T07:43:31.459Z,7896
2018-02-20T07:44:31.456Z,7988
2018-02-20T07:45:31.670Z,8168
2018-02-20T07:46:31.654Z,8088
2018-02-20T07:47:31.380Z,8216
2018-02-20T07:48:31.374Z,8180
2018-02-20T07:49:31.356Z,8072
2018-02-20T07:50:31.352Z,8048
2018-02-20T07:51:31.325Z,8128
2018-02-20T07:52:31.312Z,6880
2018-02-20T07:53:31.554Z,7064
2018-02-20T07:54:31.294Z,6256
2018-02-20T07:55:31.282Z,6088
2018-02-20T07:56:31.262Z,6000
2018-02-20T07:57:31.494Z,5988
2018-02-20T07:58:30.718Z,5988
2018-02-20T07:59:31.470Z,5964
2018-02-20T08:00:31.456Z,5948
2018-02-20T08:01:31.453Z,5932
2018-02-20T08:02:31.419Z,5908
2018-02-20T08:03:31.411Z,5848
2018-02-20T08:04:31.137Z,5784
2018-02-20T08:05:31.485Z,5764
2018-02-20T08:06:31.109Z,5780
2018-02-20T08:07:31.349Z,5796
2018-02-20T08:08:31.342Z,5796
2018-02-20T08:09:31.063Z,5812
2018-02-20T08:10:31.053Z,5856
2018-02-20T08:11:31.306Z,5916
2018-02-20T08:12:31.332Z,5980
2018-02-20T08:13:31.468Z,5952
2018-02-20T08:14:31.245Z,5876
2018-02-20T08:15:31.224Z,5948
2018-02-20T08:16:30.951Z,5964
2018-02-20T08:17:31.020Z,5996
2018-02-20T08:18:31.186Z,5920
2018-02-20T08:19:31.174Z,5920
2018-02-20T08:20:31.171Z,5924
2018-02-20T08:21:30.876Z,5908
2018-02-20T08:22:31.113Z,5920
2018-02-20T08:23:30.875Z,5916
2018-02-20T08:24:30.853Z,5868
2018-02-20T08:25:30.816Z,5820
2018-02-20T08:26:31.080Z,5780
2018-02-20T08:27:31.040Z,5752
2018-02-20T08:28:31.026Z,5684
2018-02-20T08:29:30.752Z,5680
2018-02-20T08:30:30.745Z,5632
2018-02-20T08:31:30.978Z,5592
2018-02-20T08:32:30.960Z,5568
2018-02-20T08:33:30.940Z,5548
2018-02-20T08:34:30.926Z,5488
2018-02-20T08:35:30.655Z,5496
2018-02-20T08:36:30.398Z,5464
2018-02-20T08:37:30.620Z,5436
2018-02-20T08:38:31.136Z,5424
2018-02-20T08:39:30.867Z,5388
2018-02-20T08:40:30.848Z,5372
2018-02-20T08:41:30.307Z,5364
2018-02-20T08:42:30.866Z,5380
2018-02-20T08:43:30.540Z,5396
2018-02-20T08:44:30.513Z,5404
2018-02-20T08:45:30.755Z,5460
2018-02-20T08:46:30.745Z,5524
2018-02-20T08:47:30.756Z,5596
2018-02-20T08:48:30.705Z,5604
2018-02-20T08:49:30.438Z,5644
2018-02-20T08:50:30.414Z,5708
2018-02-20T08:51:30.687Z,5760
2018-02-20T08:52:30.650Z,5804
2018-02-20T08:53:30.641Z,5896
2018-02-20T08:54:30.424Z,5964
2018-02-20T08:55:30.379Z,6016
2018-02-20T08:56:30.606Z,6080
2018-02-20T08:57:30.594Z,6184
2018-02-20T08:58:30.552Z,6312
2018-02-20T08:59:30.536Z,6408
2018-02-20T09:00:30.269Z,6468
2018-02-20T09:01:30.520Z,6588
2018-02-20T09:02:29.987Z,6696
2018-02-20T09:03:29.972Z,6780
2018-02-20T09:04:30.213Z,6916
2018-02-20T09:05:30.205Z,7052
2018-02-20T09:06:30.233Z,7084
2018-02-20T09:07:30.164Z,7192
2018-02-20T09:08:30.413Z,7268
2018-02-20T09:09:30.130Z,7368
2018-02-20T09:10:30.366Z,7436
2018-02-20T09:11:30.176Z,7516
2018-02-20T09:12:30.341Z,7572
2018-02-20T09:13:30.329Z,7660
2018-02-20T09:14:30.309Z,7804
2018-02-20T09:15:30.287Z,7868
2018-02-20T09:16:30.276Z,7996
2018-02-20T09:17:30.265Z,8088
2018-02-20T09:18:29.986Z,8172
2018-02-20T09:19:29.982Z,8336
2018-02-20T09:20:30.209Z,8440
2018-02-20T09:21:29.940Z,8508
2018-02-20T09:22:29.687Z,8620
2018-02-20T09:23:30.175Z,8716
2018-02-20T09:24:29.897Z,8832
2018-02-20T09:25:29.905Z,8900
2018-02-20T09:26:30.127Z,8980
2018-02-20T09:27:30.123Z,9084
2018-02-20T09:28:29.878Z,9200
2018-02-20T09:29:29.846Z,9264
2018-02-20T09:30:30.074Z,9384
2018-02-20T09:31:30.216Z,9484
2018-02-20T09:32:29.807Z,9560
2018-02-20T09:33:30.024Z,9616
2018-02-20T09:34:29.779Z,9616
2018-02-20T09:35:29.995Z,9624
2018-02-20T09:36:29.998Z,9668
2018-02-20T09:37:29.983Z,9708
2018-02-20T09:38:29.957Z,9740
2018-02-20T09:39:29.933Z,9736
2018-02-20T09:40:30.172Z,9708
2018-02-20T09:41:29.905Z,9632
2018-02-20T09:42:29.635Z,9612
2018-02-20T09:43:29.883Z,9508
2018-02-20T09:44:29.863Z,9396
2018-02-20T09:45:29.850Z,9260
2018-02-20T09:46:29.835Z,9176
2018-02-20T09:47:29.566Z,9092
2018-02-20T09:48:29.820Z,8996
2018-02-20T09:49:29.538Z,8896
2018-02-20T09:50:29.531Z,8760
2018-02-20T09:51:29.766Z,8684
2018-02-20T09:52:29.500Z,8600
2018-02-20T09:53:29.478Z,8548
2018-02-20T09:54:29.464Z,8484
2018-02-20T09:55:29.717Z,8436
2018-02-20T09:56:29.698Z,8384
2018-02-20T09:57:29.690Z,8316
2018-02-20T09:58:29.413Z,8276
2018-02-20T09:59:29.402Z,8200
2018-02-20T10:00:29.670Z,8112
2018-02-20T10:01:29.627Z,8024
2018-02-20T10:02:29.615Z,7992
2018-02-20T10:03:29.346Z,7960
2018-02-20T10:04:29.602Z,7904
2018-02-20T10:05:29.574Z,7812
2018-02-20T10:06:29.562Z,7752
2018-02-20T10:07:29.293Z,7664
2018-02-20T10:08:29.538Z,7664
2018-02-20T10:09:29.528Z,7664
2018-02-20T10:10:29.501Z,7600
2018-02-20T10:11:29.486Z,7568
2018-02-20T10:12:28.976Z,7576
2018-02-20T10:13:29.479Z,7544
2018-02-20T10:14:29.208Z,7508
2018-02-20T10:15:29.458Z,7428
2018-02-20T10:16:29.857Z,7372
2018-02-20T10:17:29.458Z,7320
2018-02-20T10:18:29.404Z,7284
2018-02-20T10:19:29.130Z,7296
2018-02-20T10:20:29.394Z,7292
2018-02-20T10:21:29.408Z,7296
2018-02-20T10:22:29.353Z,7208
2018-02-20T10:23:29.089Z,7112
2018-02-20T10:24:29.370Z,7044
2018-02-20T10:25:29.062Z,7044
2018-02-20T10:26:28.787Z,7004
2018-02-20T10:27:29.080Z,6892
2018-02-20T10:28:29.277Z,6840
2018-02-20T10:29:29.028Z,6784
2018-02-20T10:30:29.250Z,6720
2018-02-20T10:31:28.753Z,6632
2018-02-20T10:32:29.298Z,6576
2018-02-20T10:33:29.223Z,6548
2018-02-20T10:34:29.212Z,6520
2018-02-20T10:35:29.258Z,6528
2018-02-20T10:36:29.224Z,6508
2018-02-20T10:37:29.185Z,6472
2018-02-20T10:38:29.140Z,6456
2018-02-20T10:39:28.609Z,6444
2018-02-20T10:40:29.119Z,6452
2018-02-20T10:41:28.853Z,6436
2018-02-20T10:42:28.826Z,6420
2018-02-20T10:43:29.074Z,6420
2018-02-20T10:44:28.805Z,6416
2018-02-20T10:45:28.785Z,6396
2018-02-20T10:46:28.781Z,6372
2018-02-20T10:47:29.041Z,6348
2018-02-20T10:48:29.072Z,6304
2018-02-20T10:49:28.790Z,6260
2018-02-20T10:50:29.005Z,6224
2018-02-20T10:51:28.705Z,6172
2018-02-20T10:52:28.700Z,6092
2018-02-20T10:53:28.948Z,6052
2018-02-20T10:54:28.927Z,6068
2018-02-20T10:55:28.904Z,6032
2018-02-20T10:56:28.636Z,5992
2018-02-20T10:57:28.880Z,6020
2018-02-20T10:58:28.667Z,6016
2018-02-20T10:59:28.882Z,6052
2018-02-20T11:00:28.859Z,6056
2018-02-20T11:01:28.854Z,6028
2018-02-20T11:02:28.568Z,6000
2018-02-20T11:03:28.564Z,5996
2018-02-20T11:04:28.292Z,6000
2018-02-20T11:05:28.266Z,5972
2018-02-20T11:06:28.776Z,5932
2018-02-20T11:07:28.531Z,5920
2018-02-20T11:08:28.234Z,5928
2018-02-20T11:09:28.223Z,5932
2018-02-20T11:10:28.746Z,5976
2018-02-20T11:11:28.698Z,5960
2018-02-20T11:12:28.429Z,5908
2018-02-20T11:13:28.763Z,5888
2018-02-20T11:14:28.933Z,5848
2018-02-20T11:15:28.391Z,5776
2018-02-20T11:16:28.640Z,5736
2018-02-20T11:17:28.611Z,5708
2018-02-20T11:18:28.091Z,5692
2018-02-20T11:19:28.332Z,5664
2018-02-20T11:20:28.581Z,5588
2018-02-20T11:21:28.302Z,5552
2018-02-20T11:22:28.554Z,5492
2018-02-20T11:23:28.280Z,5468
2018-02-20T11:24:28.266Z,5456
2018-02-20T11:25:28.245Z,5428
2018-02-20T11:26:28.235Z,5380
2018-02-20T11:27:28.224Z,5368
2018-02-20T11:28:28.460Z,5380
2018-02-20T11:29:28.484Z,5376
2018-02-20T11:30:28.220Z,5344
2018-02-20T11:31:28.170Z,5332
2018-02-20T11:32:27.898Z,5312
2018-02-20T11:33:28.149Z,5272
2018-02-20T11:34:28.392Z,5248
2018-02-20T11:35:28.114Z,5240
2018-02-20T11:36:28.096Z,5076
2018-02-20T11:37:28.090Z,5088
2018-02-20T11:38:28.328Z,5080
2018-02-20T11:39:28.088Z,5108
2018-02-20T11:40:28.048Z,5104
2018-02-20T11:41:28.325Z,5108
2018-02-20T11:42:28.285Z,5108
2018-02-20T11:43:28.263Z,5112
2018-02-20T11:44:28.248Z,5084
2018-02-20T11:45:28.233Z,5064
2018-02-20T11:46:27.710Z,5056
2018-02-20T11:47:28.207Z,5052
2018-02-20T11:48:27.947Z,5036
2018-02-20T11:49:28.192Z,5012
2018-02-20T11:50:28.268Z,5020
2018-02-20T11:51:27.649Z,5020
2018-02-20T11:52:28.143Z,5024
2018-02-20T11:53:28.132Z,5028
2018-02-20T11:54:28.117Z,5008
2018-02-20T11:55:28.122Z,5008
2018-02-20T11:56:28.092Z,5016
2018-02-20T11:57:27.815Z,5020
2018-02-20T11:58:28.069Z,5028
2018-02-20T11:59:28.047Z,5036
2018-02-20T12:00:28.043Z,5048
2018-02-20T12:01:28.257Z,5056
2018-02-20T12:02:28.036Z,5040
2018-02-20T12:03:27.744Z,5028
2018-02-20T12:04:28.019Z,5032
2018-02-20T12:05:27.969Z,5016
2018-02-20T12:06:27.979Z,5008
2018-02-20T12:07:27.733Z,5000
2018-02-20T12:08:27.926Z,4988
2018-02-20T12:09:27.935Z,4972
2018-02-20T12:10:27.909Z,4968
2018-02-20T12:11:27.880Z,4964
2018-02-20T12:12:27.908Z,4932
2018-02-20T12:13:27.878Z,4888
2018-02-20T12:14:27.866Z,4860
2018-02-20T12:15:27.859Z,4840
2018-02-20T12:16:27.854Z,4824
2018-02-20T12:17:27.830Z,4796
2018-02-20T12:18:27.826Z,4780
2018-02-20T12:19:27.271Z,4760
2018-02-20T12:20:27.862Z,4756
2018-02-20T12:21:27.764Z,4744
2018-02-20T12:22:27.500Z,4720
2018-02-20T12:23:27.762Z,4696
2018-02-20T12:24:27.476Z,4672
2018-02-20T12:25:27.722Z,4668
2018-02-20T12:26:27.439Z,4668
2018-02-20T12:27:27.683Z,4656
2018-02-20T12:28:27.408Z,4644
2018-02-20T12:29:27.413Z,4628
2018-02-20T12:30:27.384Z,4620
2018-02-20T12:31:27.630Z,4600
2018-02-20T12:32:27.616Z,4588
2018-02-20T12:33:27.597Z,4576
2018-02-20T12:34:27.328Z,4556
2018-02-20T12:35:27.588Z,4540
2018-02-20T12:36:27.562Z,4540
2018-02-20T12:37:27.033Z,4528
2018-02-20T12:38:27.274Z,4516
2018-02-20T12:39:27.525Z,4516
2018-02-20T12:40:27.514Z,4496
2018-02-20T12:41:27.496Z,4496
2018-02-20T12:42:27.487Z,4500
2018-02-20T12:43:27.476Z,4508
2018-02-20T12:44:27.222Z,4524
2018-02-20T12:45:27.201Z,4536
2018-02-20T12:46:27.432Z,4552
2018-02-20T12:47:27.423Z,4560
2018-02-20T12:48:27.154Z,4572
2018-02-20T12:49:27.400Z,4564
2018-02-20T12:50:27.389Z,4556
2018-02-20T12:51:27.118Z,4544
2018-02-20T12:52:27.102Z,4552
2018-02-20T12:53:27.342Z,4556
2018-02-20T12:54:27.335Z,4556
2018-02-20T12:55:27.329Z,4548
2018-02-20T12:56:27.308Z,4548
2018-02-20T12:57:27.039Z,4556
2018-02-20T12:58:27.703Z,4572
2018-02-20T12:59:27.274Z,4568
2018-02-20T13:00:27.004Z,4560
2018-02-20T13:01:27.245Z,4556
2018-02-20T13:02:27.230Z,4548
2018-02-20T13:03:27.268Z,4544
2018-02-20T13:04:27.054Z,4544
2018-02-20T13:05:27.327Z,4536
2018-02-20T13:06:27.230Z,4536
2018-02-20T13:07:26.661Z,4540
2018-02-20T13:08:27.150Z,4540
2018-02-20T13:09:27.153Z,4544
2018-02-20T13:10:27.323Z,4560
2018-02-20T13:11:27.176Z,4572
2018-02-20T13:12:27.104Z,4592
2018-02-20T13:13:27.082Z,4600
2018-02-20T13:14:27.072Z,4592
2018-02-20T13:15:26.816Z,4584
2018-02-20T13:16:26.535Z,4580
2018-02-20T13:17:26.805Z,4584
2018-02-20T13:18:26.774Z,4584
2018-02-20T13:19:26.772Z,4584
2018-02-20T13:20:26.815Z,4584
2018-02-20T13:21:26.981Z,4588
2018-02-20T13:22:26.970Z,4588
2018-02-20T13:23:26.446Z,4580
2018-02-20T13:24:26.702Z,4564
2018-02-20T13:25:26.963Z,4556
2018-02-20T13:26:26.951Z,4552
2018-02-20T13:27:26.915Z,4552
2018-02-20T13:28:26.911Z,4556
2018-02-20T13:29:26.196Z,4556
2018-02-20T13:30:26.866Z,4564
2018-02-20T13:31:26.591Z,4572
2018-02-20T13:32:26.845Z,4580
2018-02-20T13:33:26.825Z,4580
2018-02-20T13:34:26.297Z,4588
2018-02-20T13:35:26.291Z,4564
2018-02-20T13:36:26.788Z,4580
2018-02-20T13:37:26.774Z,4568
2018-02-20T13:38:26.759Z,4552
2018-02-20T13:39:26.805Z,4540
2018-02-20T13:40:26.749Z,4552
2018-02-20T13:41:26.477Z,4564
2018-02-20T13:42:26.471Z,4580
2018-02-20T13:43:26.694Z,4536
2018-02-20T13:44:26.673Z,4512
2018-02-20T13:45:26.438Z,4488
2018-02-20T13:46:26.417Z,4464
2018-02-20T13:47:26.642Z,4460
2018-02-20T13:48:26.394Z,4444
2018-02-20T13:49:26.630Z,4408
2018-02-20T13:50:26.600Z,4384
2018-02-20T13:51:26.459Z,4360
2018-02-20T13:52:26.725Z,4340
2018-02-20T13:53:26.562Z,4308
2018-02-20T13:54:26.305Z,4304